Time;durP1;ratioP1;P1;durP2;ratioP2;P2;SDS_P1;SDS_P2;PMS_P1;PMS_P2;Temp;Humidity;BMP_temperature;BMP_pressure;BME280_temperature;BME280_humidity;BME280_pressure;Samples;Min_cycle;Max_cycle;Signal;HPM_P1;HPM_P2
2021/06/04 00:00:33;;;;;;;2.95;2.53;;;20.20;82.20;;;;;;5083382;28;27578;-63
2021/06/04 00:03:19;;;;;;;2.72;2.50;;;20.10;82.10;;;;;;5083392;28;27408;-64
2021/06/04 00:06:04;;;;;;;3.80;3.17;;;20.10;81.80;;;;;;5082936;28;27687;-64
2021/06/04 00:08:49;;;;;;;2.78;2.08;;;20.00;81.70;;;;;;5082918;28;27464;-64
2021/06/04 00:11:40;;;;;;;4.38;2.30;;;20.00;81.90;;;;;;5083112;28;27409;-63
2021/06/04 00:14:36;;;;;;;3.45;2.88;;;20.00;81.80;;;;;;5083043;28;27476;-64
2021/06/04 00:17:23;;;;;;;3.58;2.72;;;19.90;81.60;;;;;;5082897;28;27431;-63
2021/06/04 00:20:12;;;;;;;3.45;2.78;;;19.90;82.00;;;;;;5082885;28;27422;-64
2021/06/04 00:22:57;;;;;;;2.55;2.30;;;19.90;82.10;;;;;;5082812;28;27401;-63
2021/06/04 00:25:42;;;;;;;4.15;3.03;;;19.80;81.90;;;;;;5081893;28;27391;-64
2021/06/04 00:28:27;;;;;;;2.88;2.58;;;19.80;82.30;;;;;;5082340;28;27372;-64
2021/06/04 00:31:11;;;;;;;4.53;2.75;;;19.70;82.10;;;;;;5082752;28;27413;-64
2021/06/04 00:33:56;;;;;;;2.92;2.72;;;19.70;81.90;;;;;;5082373;28;27387;-63
2021/06/04 00:36:41;;;;;;;6.75;2.80;;;19.70;82.10;;;;;;5082649;28;27341;-64
2021/06/04 00:39:27;;;;;;;2.95;2.67;;;19.70;82.20;;;;;;5082850;28;27452;-64
2021/06/04 00:42:17;;;;;;;3.65;2.70;;;19.60;82.20;;;;;;5083074;28;27328;-63
2021/06/04 00:45:04;;;;;;;4.10;2.78;;;19.60;81.90;;;;;;5067757;28;27432;-63
2021/06/04 00:47:49;;;;;;;3.10;2.80;;;19.60;82.10;;;;;;5081980;28;27507;-63
2021/06/04 00:50:41;;;;;;;2.83;2.63;;;19.50;81.80;;;;;;5067269;28;27436;-63
2021/06/04 00:53:25;;;;;;;4.30;2.60;;;19.50;82.30;;;;;;5086026;28;27462;-63
2021/06/04 00:56:12;;;;;;;2.88;2.30;;;19.40;82.30;;;;;;5085857;28;27474;-64
2021/06/04 00:58:58;;;;;;;3.47;2.40;;;19.50;82.50;;;;;;5085308;28;27481;-63
2021/06/04 01:01:43;;;;;;;4.68;2.33;;;19.40;82.10;;;;;;5085229;28;27493;-63
2021/06/04 01:04:28;;;;;;;4.72;2.67;;;19.40;81.90;;;;;;5081941;28;27486;-63
2021/06/04 01:07:20;;;;;;;4.65;2.47;;;19.30;82.20;;;;;;5085607;28;27351;-64
2021/06/04 01:10:43;;;;;;;2.60;2.40;;;19.30;82.10;;;;;;5085328;28;27388;-63
2021/06/04 01:13:31;;;;;;;3.70;2.47;;;19.20;81.90;;;;;;5081707;28;27328;-63
2021/06/04 01:16:35;;;;;;;2.85;2.65;;;19.20;82.00;;;;;;5067669;28;27377;-63
2021/06/04 01:19:32;;;;;;;5.53;3.00;;;19.20;82.10;;;;;;5085558;28;27426;-63
2021/06/04 01:22:44;;;;;;;4.25;2.28;;;19.20;82.20;;;;;;5081703;28;27400;-63
2021/06/04 01:25:40;;;;;;;5.60;3.38;;;19.10;82.40;;;;;;5067086;28;27345;-64
2021/06/04 01:28:30;;;;;;;3.00;2.60;;;19.10;82.30;;;;;;5084692;28;27581;-63
2021/06/04 01:31:37;;;;;;;2.85;2.65;;;19.10;82.20;;;;;;5084588;28;27402;-63
2021/06/04 01:34:34;;;;;;;2.97;2.67;;;19.00;82.10;;;;;;5082319;28;27392;-63
2021/06/04 01:37:27;;;;;;;4.45;2.83;;;19.00;82.50;;;;;;5085175;28;27509;-63
2021/06/04 01:40:20;;;;;;;3.25;2.95;;;18.90;82.40;;;;;;5084529;28;27416;-63
2021/06/04 01:43:18;;;;;;;2.60;2.30;;;18.90;82.80;;;;;;5081299;28;27375;-64
2021/06/04 01:46:15;;;;;;;4.88;2.67;;;18.90;82.70;;;;;;5067159;28;27867;-63
2021/06/04 01:49:10;;;;;;;2.88;2.55;;;18.80;82.80;;;;;;5084151;28;27451;-63
2021/06/04 01:52:06;;;;;;;3.40;2.88;;;18.80;82.80;;;;;;5070126;28;27493;-63
2021/06/04 01:55:17;;;;;;;3.67;3.13;;;18.80;82.70;;;;;;5067357;28;27324;-63
2021/06/04 01:58:06;;;;;;;3.90;3.08;;;18.80;82.90;;;;;;5081877;28;27322;-63
2021/06/04 02:01:00;;;;;;;3.33;2.95;;;18.80;82.90;;;;;;5066919;28;27436;-63
2021/06/04 02:03:46;;;;;;;3.38;2.90;;;18.80;82.70;;;;;;5084280;28;27576;-63
2021/06/04 02:06:40;;;;;;;3.80;3.10;;;18.70;83.00;;;;;;5084121;28;26924;-63
2021/06/04 02:09:27;;;;;;;3.15;2.85;;;18.70;83.40;;;;;;5066397;28;27412;-67
2021/06/04 02:12:31;;;;;;;5.78;3.42;;;18.70;83.40;;;;;;5080702;28;27498;-63
2021/06/04 02:15:30;;;;;;;3.58;2.92;;;18.70;83.50;;;;;;5084128;28;27426;-63
2021/06/04 02:18:32;;;;;;;3.70;2.78;;;18.70;83.50;;;;;;5080782;28;27396;-63
2021/06/04 02:21:39;;;;;;;3.47;3.10;;;18.70;83.40;;;;;;5084046;28;27437;-63
2021/06/04 02:24:44;;;;;;;4.15;2.75;;;18.70;83.60;;;;;;5083461;28;27821;-63
2021/06/04 02:27:39;;;;;;;5.68;2.85;;;18.70;83.30;;;;;;5084703;28;27486;-63
2021/06/04 02:30:36;;;;;;;4.40;2.97;;;18.70;83.70;;;;;;5080021;28;27415;-64
2021/06/04 02:33:37;;;;;;;8.20;3.20;;;18.70;83.50;;;;;;5083745;28;27336;-63
2021/06/04 02:36:25;;;;;;;5.68;3.10;;;18.60;83.40;;;;;;5083677;28;27487;-63
2021/06/04 02:39:22;;;;;;;3.65;3.20;;;18.60;83.30;;;;;;5083567;28;27436;-64
2021/06/04 02:42:32;;;;;;;3.00;2.53;;;18.60;83.40;;;;;;5080959;28;27410;-64
2021/06/04 02:45:29;;;;;;;8.00;3.00;;;18.60;83.00;;;;;;5080062;28;27464;-64
2021/06/04 02:48:17;;;;;;;6.28;3.28;;;18.50;83.40;;;;;;5066358;28;27478;-63
2021/06/04 02:51:16;;;;;;;3.83;3.25;;;18.50;83.60;;;;;;5081224;28;26911;-63
2021/06/04 02:54:11;;;;;;;3.30;2.97;;;18.50;83.50;;;;;;5068976;28;27482;-62
2021/06/04 02:56:59;;;;;;;4.93;3.65;;;18.50;83.70;;;;;;5080046;28;27464;-63
2021/06/04 02:59:45;;;;;;;4.20;3.80;;;18.50;84.80;;;;;;5080012;28;27567;-62
2021/06/04 03:02:32;;;;;;;4.75;3.58;;;18.50;84.10;;;;;;5080150;28;27321;-63
2021/06/04 03:05:22;;;;;;;9.85;4.88;;;18.50;84.20;;;;;;5083649;28;27442;-63
2021/06/04 03:08:10;;;;;;;5.95;4.05;;;18.50;84.50;;;;;;5083518;28;27824;-63
2021/06/04 03:10:55;;;;;;;5.03;3.88;;;18.50;84.50;;;;;;5083937;28;27427;-63
2021/06/04 03:13:40;;;;;;;5.68;3.90;;;18.50;84.50;;;;;;5083167;28;27327;-63
2021/06/04 03:16:27;;;;;;;6.80;4.68;;;18.50;84.60;;;;;;5083912;28;27324;-63
2021/06/04 03:19:15;;;;;;;7.10;4.65;;;18.50;84.50;;;;;;5067398;28;27438;-63
2021/06/04 03:22:22;;;;;;;9.63;4.55;;;18.50;84.80;;;;;;5083742;28;27488;-63
2021/06/04 03:25:15;;;;;;;7.60;4.75;;;18.50;84.60;;;;;;5082025;28;27422;-63
2021/06/04 03:28:01;;;;;;;5.47;4.20;;;18.50;85.40;;;;;;5082622;28;27498;-63
2021/06/04 03:30:50;;;;;;;7.05;4.45;;;18.50;84.70;;;;;;5079569;28;27420;-63
2021/06/04 03:33:37;;;;;;;5.50;4.68;;;18.50;84.70;;;;;;5079378;28;27318;-64
2021/06/04 03:36:26;;;;;;;7.10;4.63;;;18.40;84.80;;;;;;5079597;28;27340;-63
2021/06/04 03:39:14;;;;;;;8.02;5.05;;;18.50;84.80;;;;;;5083391;28;27416;-63
2021/06/04 03:42:01;;;;;;;5.47;4.63;;;18.50;85.00;;;;;;5083231;28;27338;-64
2021/06/04 03:44:48;;;;;;;12.60;4.68;;;18.50;84.80;;;;;;5079463;28;27455;-64
2021/06/04 03:47:33;;;;;;;6.70;4.18;;;18.40;85.00;;;;;;5081023;28;27378;-63
2021/06/04 03:50:18;;;;;;;6.80;4.22;;;18.40;84.80;;;;;;5079216;28;27311;-64
2021/06/04 03:53:05;;;;;;;7.32;4.43;;;18.40;84.90;;;;;;5083294;28;27316;-64
2021/06/04 03:55:50;;;;;;;11.52;5.60;;;18.50;85.40;;;;;;5083157;28;27392;-64
2021/06/04 03:58:34;;;;;;;6.18;4.28;;;18.40;85.00;;;;;;5083274;28;27356;-64
2021/06/04 04:01:33;;;;;;;4.57;4.18;;;18.40;84.90;;;;;;5078972;28;27410;-64
2021/06/04 04:04:18;;;;;;;12.80;4.20;;;18.40;85.00;;;;;;5082400;28;27999;-67
2021/06/04 04:07:04;;;;;;;9.93;5.03;;;18.40;85.00;;;;;;5082392;28;27470;-64
2021/06/04 04:09:48;;;;;;;7.20;5.38;;;18.40;85.40;;;;;;5064433;28;27504;-64
2021/06/04 04:12:33;;;;;;;6.53;5.70;;;18.40;86.20;;;;;;5083116;28;27405;-64
2021/06/04 04:15:18;;;;;;;5.88;5.10;;;18.50;85.40;;;;;;5082350;28;27420;-64
2021/06/04 04:18:03;;;;;;;7.82;5.57;;;18.50;85.80;;;;;;5084729;28;27384;-64
2021/06/04 04:20:54;;;;;;;8.05;6.10;;;18.50;85.80;;;;;;5085745;28;27419;-64
2021/06/04 04:23:41;;;;;;;10.38;5.30;;;18.50;86.10;;;;;;5071550;28;27320;-64
2021/06/04 04:26:29;;;;;;;10.65;5.82;;;18.50;86.00;;;;;;5086509;28;27415;-64
2021/06/04 04:29:13;;;;;;;6.95;6.25;;;18.50;86.00;;;;;;5085544;28;27473;-64
2021/06/04 04:31:59;;;;;;;7.78;6.72;;;18.50;86.00;;;;;;5086254;28;27465;-65
2021/06/04 04:34:44;;;;;;;7.95;6.68;;;18.50;86.20;;;;;;5086219;28;27463;-65
2021/06/04 04:37:28;;;;;;;9.63;6.80;;;18.60;86.30;;;;;;5086217;28;27438;-65
2021/06/04 04:40:13;;;;;;;9.15;7.13;;;18.60;86.80;;;;;;5085767;28;27628;-65
2021/06/04 04:42:58;;;;;;;8.30;6.63;;;18.50;86.60;;;;;;5086437;28;27458;-65
2021/06/04 04:45:43;;;;;;;8.85;5.80;;;18.60;87.10;;;;;;5086016;28;27490;-65
2021/06/04 04:48:27;;;;;;;7.05;6.10;;;18.60;87.00;;;;;;5085370;28;27471;-65
2021/06/04 04:51:12;;;;;;;6.60;5.90;;;18.60;86.80;;;;;;5086096;28;27482;-64
2021/06/04 04:53:57;;;;;;;7.15;5.40;;;18.60;87.10;;;;;;5067655;28;27481;-65
2021/06/04 04:56:41;;;;;;;7.25;5.30;;;18.70;87.10;;;;;;5086110;28;27470;-65
2021/06/04 04:59:26;;;;;;;8.05;5.78;;;18.70;87.30;;;;;;5084943;28;27488;-65
2021/06/04 05:02:10;;;;;;;7.68;5.72;;;18.70;86.90;;;;;;5086021;28;27428;-65
2021/06/04 05:04:55;;;;;;;6.47;5.75;;;18.70;87.30;;;;;;5067708;28;27411;-65
2021/06/04 05:07:40;;;;;;;6.82;6.07;;;18.70;87.20;;;;;;5085646;28;27698;-65
2021/06/04 05:10:24;;;;;;;7.30;6.47;;;18.80;86.20;;;;;;5085596;28;27325;-65
2021/06/04 05:13:09;;;;;;;9.48;6.22;;;18.80;84.80;;;;;;5085818;28;27394;-65
2021/06/04 05:15:54;;;;;;;7.70;6.55;;;18.80;84.00;;;;;;5085907;28;27408;-65
2021/06/04 05:18:38;;;;;;;7.43;6.72;;;18.80;84.20;;;;;;5084689;28;27382;-65
2021/06/04 05:21:23;;;;;;;8.68;7.38;;;18.80;83.70;;;;;;5085721;28;27368;-65
2021/06/04 05:24:08;;;;;;;10.93;7.00;;;18.80;83.50;;;;;;5084880;28;27339;-65
2021/06/04 05:26:53;;;;;;;6.97;6.30;;;18.90;84.40;;;;;;5085464;28;27438;-65
2021/06/04 05:29:38;;;;;;;7.07;6.35;;;18.90;83.90;;;;;;5083730;28;27338;-65
2021/06/04 05:32:23;;;;;;;7.60;6.78;;;18.90;84.10;;;;;;5085054;28;28677;-65
2021/06/04 05:35:12;;;;;;;6.60;6.00;;;19.00;83.90;;;;;;5084910;28;27366;-70
2021/06/04 05:37:57;;;;;;;6.53;5.63;;;19.00;84.60;;;;;;5084446;28;27430;-66
2021/06/04 05:40:44;;;;;;;5.72;4.78;;;19.10;85.20;;;;;;5081319;28;27410;-70
2021/06/04 05:43:30;;;;;;;6.18;5.50;;;19.10;86.10;;;;;;5084180;28;27450;-66
2021/06/04 05:46:16;;;;;;;6.72;5.10;;;19.30;86.50;;;;;;5084283;28;27394;-67
2021/06/04 05:49:01;;;;;;;7.03;5.25;;;19.40;86.50;;;;;;5085213;28;27358;-67
2021/06/04 05:51:46;;;;;;;5.60;5.10;;;19.50;86.40;;;;;;5085220;28;27433;-67
2021/06/04 05:54:30;;;;;;;5.88;4.88;;;19.60;86.70;;;;;;5084958;28;27411;-66
2021/06/04 05:57:15;;;;;;;6.45;5.32;;;19.80;86.60;;;;;;5085046;28;27379;-66
2021/06/04 06:00:00;;;;;;;6.20;4.65;;;19.90;87.00;;;;;;5085208;28;27350;-66
2021/06/04 06:02:45;;;;;;;8.27;5.00;;;20.20;86.80;;;;;;5084841;28;27515;-67
2021/06/04 06:05:30;;;;;;;7.50;5.55;;;20.30;87.20;;;;;;5095457;27;27474;-66
2021/06/04 06:08:14;;;;;;;7.35;4.88;;;20.60;88.10;;;;;;5084725;28;27414;-67
2021/06/04 06:10:59;;;;;;;6.57;5.15;;;20.80;88.40;;;;;;5084839;28;27461;-67
2021/06/04 06:13:43;;;;;;;5.70;4.88;;;21.00;87.10;;;;;;5083845;28;27450;-66
2021/06/04 06:16:28;;;;;;;6.22;5.28;;;21.10;85.70;;;;;;5084863;28;27474;-67
2021/06/04 06:19:14;;;;;;;5.78;5.18;;;21.10;85.40;;;;;;5084807;28;27424;-72
2021/06/04 06:22:00;;;;;;;7.03;4.40;;;21.20;86.40;;;;;;5084886;28;27508;-67
2021/06/04 06:24:48;;;;;;;8.20;5.88;;;21.30;86.60;;;;;;5084760;28;26938;-72
2021/06/04 06:27:33;;;;;;;8.05;5.78;;;21.50;86.00;;;;;;5084470;28;27338;-67
2021/06/04 06:30:20;;;;;;;5.05;4.50;;;21.60;86.70;;;;;;5080043;28;27370;-67
2021/06/04 06:33:05;;;;;;;7.72;5.75;;;21.70;86.80;;;;;;5084893;28;26899;-67
2021/06/04 06:35:51;;;;;;;6.50;5.32;;;21.70;85.60;;;;;;5084615;28;27403;-67
2021/06/04 06:38:37;;;;;;;8.30;5.57;;;21.70;86.60;;;;;;5083428;28;27836;-67
2021/06/04 06:41:22;;;;;;;6.75;6.05;;;21.70;87.60;;;;;;5084319;28;27486;-67
2021/06/04 06:44:10;;;;;;;8.95;5.00;;;21.70;86.90;;;;;;5084216;28;27451;-68
2021/06/04 06:46:55;;;;;;;7.07;6.10;;;21.60;87.80;;;;;;5083346;28;27419;-73
2021/06/04 06:49:39;;;;;;;6.70;5.72;;;21.60;88.00;;;;;;5083058;28;27447;-67
2021/06/04 06:52:24;;;;;;;6.28;5.47;;;21.60;88.00;;;;;;5084118;28;27416;-67
2021/06/04 06:55:09;;;;;;;6.97;5.93;;;21.70;88.30;;;;;;5084082;28;27420;-74
2021/06/04 06:57:54;;;;;;;6.47;5.85;;;21.70;89.00;;;;;;5084259;28;27524;-68
2021/06/04 07:00:44;;;;;;;5.95;5.35;;;21.90;89.30;;;;;;5083299;28;27486;-68
2021/06/04 07:03:29;;;;;;;6.50;5.30;;;22.10;90.30;;;;;;5084072;28;27364;-75
2021/06/04 07:06:18;;;;;;;5.88;5.28;;;22.40;89.40;;;;;;5084177;28;27418;-67
2021/06/04 07:09:05;;;;;;;6.20;5.57;;;22.70;88.80;;;;;;5083803;28;27481;-70
2021/06/04 07:11:53;;;;;;;5.57;5.07;;;22.90;88.40;;;;;;5084028;28;27445;-69
2021/06/04 07:14:39;;;;;;;9.52;5.30;;;23.20;88.90;;;;;;5079577;28;27328;-68
2021/06/04 07:17:24;;;;;;;7.93;4.85;;;23.50;89.80;;;;;;5084743;28;27386;-68
2021/06/04 07:20:10;;;;;;;5.10;4.60;;;23.70;88.20;;;;;;5080514;28;27332;-69
2021/06/04 07:22:55;;;;;;;6.05;5.00;;;24.00;87.70;;;;;;5084700;28;27336;-68
2021/06/04 07:25:41;;;;;;;4.75;4.22;;;24.20;87.30;;;;;;5084423;28;27455;-67
2021/06/04 07:28:28;;;;;;;5.72;4.50;;;24.50;87.60;;;;;;5080609;28;27525;-69
2021/06/04 07:31:13;;;;;;;6.50;4.47;;;24.70;86.70;;;;;;5084613;28;27483;-76
2021/06/04 07:33:58;;;;;;;5.65;4.38;;;25.00;87.30;;;;;;5112727;27;27832;-68
2021/06/04 07:36:45;;;;;;;4.30;3.25;;;25.20;86.00;;;;;;5084547;28;27467;-68
2021/06/04 07:39:32;;;;;;;4.63;3.65;;;25.40;85.90;;;;;;5084610;28;27417;-68
2021/06/04 07:42:16;;;;;;;4.32;3.58;;;25.70;86.90;;;;;;5084271;28;27335;-68
2021/06/04 07:45:01;;;;;;;6.40;2.95;;;25.90;83.60;;;;;;5084146;28;27406;-67
2021/06/04 07:47:46;;;;;;;6.18;3.20;;;26.10;84.40;;;;;;5084363;28;27409;-68
2021/06/04 07:50:30;;;;;;;6.22;3.03;;;26.30;84.20;;;;;;5083871;28;27435;-68
2021/06/04 07:53:15;;;;;;;9.93;4.10;;;26.40;82.80;;;;;;5083150;28;27081;-68
2021/06/04 07:56:01;;;;;;;3.72;2.65;;;26.60;80.30;;;;;;5084213;28;27926;-67
2021/06/04 07:58:46;;;;;;;5.30;2.70;;;26.70;79.80;;;;;;5084283;28;27395;-67
2021/06/04 08:01:30;;;;;;;3.42;3.10;;;26.70;78.30;;;;;;5084309;28;27371;-67
2021/06/04 08:04:15;;;;;;;3.80;2.90;;;26.70;77.20;;;;;;5083877;28;27404;-74
2021/06/04 08:06:59;;;;;;;5.55;2.95;;;26.80;77.30;;;;;;5084023;28;27876;-67
2021/06/04 08:09:44;;;;;;;5.25;3.10;;;27.00;78.50;;;;;;5083945;28;27446;-68
2021/06/04 08:12:31;;;;;;;5.20;2.70;;;27.10;76.10;;;;;;5080159;28;27439;-68
2021/06/04 08:15:27;;;;;;;3.50;2.50;;;27.30;76.20;;;;;;5084133;28;27360;-68
2021/06/04 08:18:12;;;;;;;4.75;2.50;;;27.50;75.30;;;;;;5082917;28;27324;-68
2021/06/04 08:20:57;;;;;;;7.20;2.40;;;27.70;73.50;;;;;;5083310;28;27399;-68
2021/06/04 08:23:43;;;;;;;5.15;2.65;;;27.90;74.00;;;;;;5083345;28;26979;-68
2021/06/04 08:26:31;;;;;;;4.50;2.72;;;28.10;73.50;;;;;;5083919;28;27403;-70
2021/06/04 08:29:15;;;;;;;3.88;2.47;;;28.20;58.40;;;;;;5111010;27;27906;-69
2021/06/04 08:32:00;;;;;;;6.53;3.38;;;28.30;56.70;;;;;;5083611;28;27372;-70
2021/06/04 08:34:45;;;;;;;4.90;2.95;;;28.40;54.60;;;;;;5083007;28;27653;-68
2021/06/04 08:37:29;;;;;;;4.10;2.80;;;28.40;54.30;;;;;;5083478;28;27349;-69
2021/06/04 08:40:21;;;;;;;4.50;2.90;;;28.50;54.80;;;;;;5083614;28;27410;-69
2021/06/04 08:43:14;;;;;;;5.13;3.78;;;28.50;54.70;;;;;;5082970;28;27422;-72
2021/06/04 08:46:12;;;;;;;4.63;3.00;;;28.60;53.90;;;;;;5080301;28;27414;-72
2021/06/04 08:49:08;;;;;;;18.98;3.42;;;28.60;54.60;;;;;;5083607;28;27313;-72
2021/06/04 08:52:44;;;;;;;7.15;3.50;;;28.70;55.50;;;;;;5082880;28;27449;-75
2021/06/04 08:55:31;;;;;;;13.68;3.70;;;29.00;55.00;;;;;;5079977;28;27344;-66
2021/06/04 08:58:43;;;;;;;8.50;3.40;;;29.20;53.60;;;;;;5083603;28;27424;-69
2021/06/04 09:01:30;;;;;;;10.45;3.20;;;29.30;55.30;;;;;;5083493;28;27321;-70
2021/06/04 09:04:27;;;;;;;11.00;3.42;;;29.30;53.50;;;;;;5082879;28;27347;-70
2021/06/04 09:07:27;;;;;;;3.40;2.83;;;29.40;56.00;;;;;;5086875;28;27409;-66
2021/06/04 09:10:26;;;;;;;5.72;2.85;;;29.40;54.90;;;;;;5085950;28;27317;-66
2021/06/04 09:13:15;;;;;;;5.70;2.85;;;29.60;57.30;;;;;;5086516;28;27416;-66
2021/06/04 09:16:05;;;;;;;5.53;2.72;;;29.70;58.90;;;;;;5086001;28;27932;-66
2021/06/04 09:19:09;;;;;;;4.50;3.00;;;29.80;59.40;;;;;;5086718;28;27320;-66
2021/06/04 09:21:54;;;;;;;3.70;2.28;;;30.00;60.60;;;;;;5085687;28;27418;-66
2021/06/04 09:24:44;;;;;;;7.07;2.97;;;30.10;60.20;;;;;;5085592;28;27402;-66
2021/06/04 09:27:34;;;;;;;5.50;3.05;;;30.10;61.90;;;;;;5086296;28;27456;-66
2021/06/04 09:30:25;;;;;;;4.22;2.42;;;30.20;62.90;;;;;;5082016;28;27391;-66
2021/06/04 09:33:42;;;;;;;5.03;2.42;;;30.20;63.30;;;;;;5086608;28;27463;-66
2021/06/04 09:36:41;;;;;;;2.70;2.38;;;30.20;65.60;;;;;;5086199;28;27402;-66
2021/06/04 09:39:36;;;;;;;4.65;2.88;;;30.20;65.00;;;;;;5085517;28;27511;-66
2021/06/04 09:42:26;;;;;;;6.15;2.63;;;30.10;65.40;;;;;;5082814;28;27450;-66
2021/06/04 09:45:10;;;;;;;4.28;2.55;;;30.10;65.50;;;;;;5086437;28;27419;-66
2021/06/04 09:48:05;;;;;;;4.13;2.85;;;29.90;64.20;;;;;;5086341;28;27451;-66
2021/06/04 09:50:49;;;;;;;6.95;2.80;;;29.90;65.00;;;;;;5085877;28;27558;-66
2021/06/04 09:53:34;;;;;;;5.45;2.45;;;29.80;65.40;;;;;;5086214;28;27507;-67
2021/06/04 09:56:28;;;;;;;5.53;3.30;;;29.80;65.80;;;;;;5086223;28;27450;-66
2021/06/04 09:59:14;;;;;;;5.85;2.60;;;29.90;66.70;;;;;;5085177;28;27419;-67
2021/06/04 10:01:58;;;;;;;4.80;2.58;;;30.10;67.50;;;;;;5085694;28;27404;-67
2021/06/04 10:04:43;;;;;;;2.85;2.10;;;30.20;69.00;;;;;;5085252;28;27510;-67
2021/06/04 10:07:27;;;;;;;6.43;2.20;;;30.30;68.90;;;;;;5085742;28;27423;-66
2021/06/04 10:10:23;;;;;;;4.88;2.47;;;30.40;69.90;;;;;;5085012;28;27434;-67
2021/06/04 10:13:26;;;;;;;4.15;1.80;;;30.30;69.00;;;;;;5099825;27;27446;-67
2021/06/04 10:19:43;;;;;;;3.67;1.80;;;30.40;68.00;;;;;;5092116;28;27514;-67
2021/06/04 10:22:31;;;;;;;6.20;2.50;;;30.40;67.50;;;;;;5084745;28;27374;-67
2021/06/04 10:25:19;;;;;;;2.55;1.85;;;30.30;68.50;;;;;;5085641;28;27448;-67
2021/06/04 10:28:04;;;;;;;6.93;2.40;;;30.30;68.80;;;;;;5084970;28;27586;-67
2021/06/04 10:30:49;;;;;;;6.53;2.15;;;30.50;69.60;;;;;;5084274;28;27458;-68
2021/06/04 10:34:05;;;;;;;4.63;1.98;;;30.70;69.50;;;;;;5085496;28;27392;-67
2021/06/04 10:36:54;;;;;;;9.75;2.22;;;31.10;67.30;;;;;;5085050;28;27478;-68
2021/06/04 10:39:49;;;;;;;7.15;2.15;;;31.40;66.00;;;;;;5085448;28;27379;-67
2021/06/04 10:43:06;;;;;;;5.68;2.53;;;31.60;65.40;;;;;;5084701;28;27316;-68
2021/06/04 10:45:56;;;;;;;4.70;2.20;;;31.80;64.10;;;;;;5083618;28;27431;-68
2021/06/04 10:48:58;;;;;;;4.45;2.20;;;32.00;63.50;;;;;;5085253;28;27407;-68
2021/06/04 10:52:11;;;;;;;4.30;2.00;;;31.80;61.60;;;;;;5085248;28;27478;-69
2021/06/04 10:55:13;;;;;;;3.10;1.85;;;31.70;61.10;;;;;;5084589;28;27494;-68
2021/06/04 10:58:17;;;;;;;3.55;1.92;;;31.50;60.70;;;;;;5084872;28;27403;-69
2021/06/04 11:01:08;;;;;;;5.30;1.90;;;31.30;61.50;;;;;;5084075;28;27400;-67
2021/06/04 11:04:01;;;;;;;3.78;2.15;;;31.20;61.20;;;;;;5098513;27;27500;-68
2021/06/04 11:06:48;;;;;;;3.35;2.25;;;31.00;62.00;;;;;;5084317;28;27370;-68
2021/06/04 11:09:58;;;;;;;4.63;2.08;;;30.80;60.20;;;;;;5084873;28;27528;-68
2021/06/04 11:13:06;;;;;;;2.35;1.80;;;30.50;59.20;;;;;;5084008;28;27340;-68
2021/06/04 11:16:29;;;;;;;2.60;1.98;;;30.30;57.80;;;;;;5083883;28;27587;-67
2021/06/04 11:19:35;;;;;;;4.78;2.10;;;30.10;57.70;;;;;;5082879;28;27326;-68
2021/06/04 11:22:23;;;;;;;4.20;1.85;;;29.90;57.70;;;;;;5083838;28;27394;-68
2021/06/04 11:25:27;;;;;;;4.03;2.17;;;29.80;56.20;;;;;;5080647;28;27470;-69
2021/06/04 11:28:30;;;;;;;1.95;1.42;;;29.50;56.10;;;;;;5082950;28;27392;-72
2021/06/04 11:31:33;;;;;;;3.45;2.45;;;29.30;57.80;;;;;;5084530;28;27348;-68
2021/06/04 11:34:44;;;;;;;3.45;2.00;;;29.10;57.50;;;;;;5083822;28;27324;-67
2021/06/04 11:37:41;;;;;;;6.28;2.10;;;29.00;58.30;;;;;;5084261;28;27497;-68
2021/06/04 11:40:43;;;;;;;4.85;2.47;;;28.80;58.20;;;;;;5098752;27;27479;-67
2021/06/04 11:43:30;;;;;;;5.55;1.90;;;28.70;57.70;;;;;;5084273;28;27488;-67
2021/06/04 11:46:16;;;;;;;4.18;2.17;;;28.60;58.90;;;;;;5083418;28;27474;-71
2021/06/04 11:49:05;;;;;;;2.72;1.92;;;28.50;59.50;;;;;;5084349;28;27427;-67
2021/06/04 11:51:52;;;;;;;4.50;2.45;;;28.40;60.20;;;;;;5084271;28;27451;-67
2021/06/04 11:54:39;;;;;;;9.90;2.65;;;28.30;55.50;;;;;;5097626;27;27474;-65
2021/06/04 11:57:42;;;;;;;3.40;2.10;;;28.30;53.70;;;;;;5084302;28;27439;-67
2021/06/04 12:01:14;;;;;;;2.92;2.15;;;28.30;53.30;;;;;;5080715;28;27458;-67
2021/06/04 12:03:58;;;;;;;4.70;2.00;;;28.40;55.00;;;;;;5082937;28;27558;-67
2021/06/04 12:06:43;;;;;;;6.70;2.38;;;28.60;56.60;;;;;;5084312;28;27319;-66
2021/06/04 12:09:48;;;;;;;5.88;2.15;;;28.80;54.00;;;;;;5084062;28;27384;-67
2021/06/04 12:12:57;;;;;;;7.18;2.50;;;29.00;54.20;;;;;;5083747;28;27328;-67
2021/06/04 12:15:41;;;;;;;5.78;2.10;;;29.20;57.10;;;;;;5084058;28;27516;-67
2021/06/04 12:18:34;;;;;;;4.30;2.75;;;29.40;59.90;;;;;;5083376;28;27447;-67
2021/06/04 12:21:37;;;;;;;4.88;2.53;;;29.50;62.80;;;;;;5083978;28;27362;-67
2021/06/04 12:24:21;;;;;;;5.00;2.85;;;29.70;63.80;;;;;;5083902;28;27829;-67
2021/06/04 12:27:12;;;;;;;4.13;2.97;;;29.80;64.10;;;;;;5083782;28;27597;-67
2021/06/04 12:29:57;;;;;;;4.43;2.40;;;29.80;66.20;;;;;;5082878;28;27446;-67
2021/06/04 12:32:51;;;;;;;4.50;2.60;;;29.80;63.40;;;;;;5083849;28;27404;-67
2021/06/04 12:35:46;;;;;;;3.80;2.53;;;29.80;65.00;;;;;;5083892;28;27359;-67
2021/06/04 12:38:34;;;;;;;6.85;3.97;;;29.70;65.70;;;;;;5084392;28;27483;-68
2021/06/04 12:41:22;;;;;;;7.72;2.42;;;29.60;65.80;;;;;;5087394;28;27463;-68
2021/06/04 12:44:08;;;;;;;4.60;2.60;;;29.60;68.30;;;;;;5087335;28;27395;-67
2021/06/04 12:46:53;;;;;;;4.47;2.85;;;29.60;68.70;;;;;;5068883;28;27432;-68
2021/06/04 12:49:37;;;;;;;3.38;2.25;;;29.70;70.80;;;;;;5086995;28;27399;-68
2021/06/04 12:52:22;;;;;;;6.88;2.80;;;29.80;70.90;;;;;;5086712;28;27383;-68
2021/06/04 12:55:26;;;;;;;5.07;2.50;;;29.80;69.70;;;;;;5086920;28;27368;-68
2021/06/04 12:58:16;;;;;;;5.07;3.00;;;29.90;66.30;;;;;;5086819;28;27321;-68
2021/06/04 13:01:08;;;;;;;3.55;2.28;;;30.00;69.10;;;;;;5086802;28;27604;-68
2021/06/04 13:04:14;;;;;;;4.47;2.80;;;30.10;71.70;;;;;;5086968;28;27314;-68
2021/06/04 13:06:59;;;;;;;6.65;3.40;;;30.30;69.60;;;;;;5085927;28;27422;-68
2021/06/04 13:09:56;;;;;;;5.35;2.72;;;30.50;70.90;;;;;;5086724;28;27333;-68
2021/06/04 13:12:40;;;;;;;4.18;2.13;;;30.70;69.40;;;;;;5086058;28;27420;-65
2021/06/04 13:15:27;;;;;;;6.93;2.80;;;30.90;69.50;;;;;;5086591;28;27345;-66
2021/06/04 13:18:17;;;;;;;7.22;3.05;;;31.00;70.20;;;;;;5082413;28;27419;-65
2021/06/04 13:21:17;;;;;;;3.60;2.65;;;31.10;67.10;;;;;;5086146;28;27596;-66
2021/06/04 13:24:12;;;;;;;7.28;2.55;;;31.20;65.20;;;;;;5085643;28;27498;-66
2021/06/04 13:26:57;;;;;;;4.70;2.78;;;31.20;67.20;;;;;;5086415;28;27416;-66
2021/06/04 13:29:44;;;;;;;7.20;2.65;;;31.20;70.30;;;;;;5085400;28;27379;-66
2021/06/04 13:32:36;;;;;;;4.28;2.45;;;31.30;71.60;;;;;;5086551;28;27454;-66
2021/06/04 13:35:41;;;;;;;7.55;2.50;;;31.50;70.80;;;;;;5086462;28;27348;-71
2021/06/04 13:38:33;;;;;;;3.78;2.58;;;31.50;67.30;;;;;;5085709;28;27368;-66
2021/06/04 13:41:31;;;;;;;5.03;2.50;;;31.60;71.50;;;;;;5086371;28;27344;-65
2021/06/04 13:44:19;;;;;;;4.55;2.40;;;31.70;69.10;;;;;;5085520;28;27505;-65
2021/06/04 13:47:17;;;;;;;3.42;2.35;;;31.80;69.00;;;;;;5085788;28;27423;-65
2021/06/04 13:50:23;;;;;;;5.60;2.50;;;31.80;63.30;;;;;;5085310;28;27336;-66
2021/06/04 13:53:08;;;;;;;4.18;2.50;;;31.70;64.10;;;;;;5085209;28;27356;-66
2021/06/04 13:56:20;;;;;;;3.90;3.00;;;31.60;63.80;;;;;;5086123;28;27366;-66
2021/06/04 13:59:26;;;;;;;5.28;2.40;;;31.50;65.00;;;;;;5086146;28;27521;-65
2021/06/04 14:02:31;;;;;;;4.22;2.10;;;31.30;64.90;;;;;;5086260;28;27349;-65
2021/06/04 14:05:30;;;;;;;4.00;2.15;;;31.20;61.90;;;;;;5085668;28;27455;-65
2021/06/04 14:08:23;;;;;;;5.47;2.55;;;31.00;63.10;;;;;;5081641;28;27363;-65
2021/06/04 14:11:14;;;;;;;2.53;2.25;;;30.90;67.20;;;;;;5067234;28;27329;-65
2021/06/04 14:14:02;;;;;;;6.05;2.28;;;30.80;64.50;;;;;;5084843;28;27419;-65
2021/06/04 14:16:49;;;;;;;2.33;1.88;;;30.70;61.90;;;;;;5085624;28;27352;-70
2021/06/04 14:19:53;;;;;;;3.03;2.00;;;30.60;60.90;;;;;;5081768;28;27423;-65
2021/06/04 14:22:41;;;;;;;2.05;1.85;;;30.50;64.50;;;;;;5085448;28;27379;-65
2021/06/04 14:25:26;;;;;;;3.00;1.88;;;30.40;61.40;;;;;;5085434;28;27482;-66
2021/06/04 14:28:21;;;;;;;3.47;2.03;;;30.30;59.90;;;;;;5084883;28;27604;-70
2021/06/04 14:31:06;;;;;;;5.13;2.00;;;30.20;58.00;;;;;;5085246;28;27385;-65
2021/06/04 14:33:52;;;;;;;4.07;2.22;;;30.10;59.10;;;;;;5085584;28;27356;-65
2021/06/04 14:36:36;;;;;;;5.13;2.25;;;30.00;59.60;;;;;;5084594;28;27503;-70
2021/06/04 14:39:26;;;;;;;6.68;2.67;;;29.80;61.40;;;;;;5084760;28;27356;-65
2021/06/04 14:42:12;;;;;;;5.28;2.38;;;29.70;61.60;;;;;;5085138;28;27888;-72
2021/06/04 14:44:56;;;;;;;5.20;2.40;;;29.70;64.20;;;;;;5085094;28;27636;-67
2021/06/04 14:47:41;;;;;;;3.65;2.22;;;29.50;62.50;;;;;;5081120;28;27411;-67
2021/06/04 14:50:28;;;;;;;3.28;2.45;;;29.50;62.00;;;;;;5084105;28;27400;-68